sensor_id;sensor_type;location;lat;lon;timestamp;temperature;humidity
10447;DHT22;5271;44.422;26.092;2023-04-24T00:00:12;15.00;97.70
10447;DHT22;5271;44.422;26.092;2023-04-24T00:02:40;15.00;97.80
10447;DHT22;5271;44.422;26.092;2023-04-24T00:05:12;15.00;97.90
10447;DHT22;5271;44.422;26.092;2023-04-24T00:07:40;15.00;97.90
10447;DHT22;5271;44.422;26.092;2023-04-24T00:10:08;15.00;98.00
10447;DHT22;5271;44.422;26.092;2023-04-24T00:12:35;14.90;98.20
10447;DHT22;5271;44.422;26.092;2023-04-24T00:15:03;14.90;98.30
10447;DHT22;5271;44.422;26.092;2023-04-24T00:17:30;14.80;98.30
10447;DHT22;5271;44.422;26.092;2023-04-24T00:19:57;14.90;98.40
10447;DHT22;5271;44.422;26.092;2023-04-24T00:22:24;14.80;98.50
10447;DHT22;5271;44.422;26.092;2023-04-24T00:24:52;14.70;98.70
10447;DHT22;5271;44.422;26.092;2023-04-24T00:27:19;14.70;99.00
10447;DHT22;5271;44.422;26.092;2023-04-24T00:29:46;14.70;98.90
10447;DHT22;5271;44.422;26.092;2023-04-24T00:32:13;14.70;98.90
10447;DHT22;5271;44.422;26.092;2023-04-24T00:34:40;14.70;99.20
10447;DHT22;5271;44.422;26.092;2023-04-24T00:37:07;14.70;99.00
10447;DHT22;5271;44.422;26.092;2023-04-24T00:39:34;14.70;99.00
10447;DHT22;5271;44.422;26.092;2023-04-24T00:42:03;14.60;99.10
10447;DHT22;5271;44.422;26.092;2023-04-24T00:44:32;14.60;99.00
10447;DHT22;5271;44.422;26.092;2023-04-24T00:46:59;14.60;99.00
10447;DHT22;5271;44.422;26.092;2023-04-24T00:49:27;14.60;99.10
10447;DHT22;5271;44.422;26.092;2023-04-24T00:51:54;14.50;99.10
10447;DHT22;5271;44.422;26.092;2023-04-24T00:54:22;14.50;99.10
10447;DHT22;5271;44.422;26.092;2023-04-24T00:56:49;14.50;99.10
10447;DHT22;5271;44.422;26.092;2023-04-24T00:59:18;14.60;99.10
10447;DHT22;5271;44.422;26.092;2023-04-24T01:01:45;14.50;99.00
10447;DHT22;5271;44.422;26.092;2023-04-24T01:04:12;14.60;98.90
10447;DHT22;5271;44.422;26.092;2023-04-24T01:06:40;14.50;98.80
10447;DHT22;5271;44.422;26.092;2023-04-24T01:09:07;14.60;98.70
10447;DHT22;5271;44.422;26.092;2023-04-24T01:11:34;14.50;98.90
10447;DHT22;5271;44.422;26.092;2023-04-24T01:14:02;14.50;98.70
10447;DHT22;5271;44.422;26.092;2023-04-24T01:16:30;14.50;98.60
10447;DHT22;5271;44.422;26.092;2023-04-24T01:18:57;14.50;98.60
10447;DHT22;5271;44.422;26.092;2023-04-24T01:21:26;14.50;98.60
10447;DHT22;5271;44.422;26.092;2023-04-24T01:23:55;14.50;98.60
10447;DHT22;5271;44.422;26.092;2023-04-24T01:26:23;14.40;98.60
10447;DHT22;5271;44.422;26.092;2023-04-24T01:28:51;14.40;98.70
10447;DHT22;5271;44.422;26.092;2023-04-24T01:31:19;14.40;98.70
10447;DHT22;5271;44.422;26.092;2023-04-24T01:33:47;14.40;98.70
10447;DHT22;5271;44.422;26.092;2023-04-24T01:36:14;14.40;98.70
10447;DHT22;5271;44.422;26.092;2023-04-24T01:38:41;14.40;98.80
10447;DHT22;5271;44.422;26.092;2023-04-24T01:41:09;14.40;98.90
10447;DHT22;5271;44.422;26.092;2023-04-24T01:43:36;14.40;98.80
10447;DHT22;5271;44.422;26.092;2023-04-24T01:46:04;14.40;98.80
10447;DHT22;5271;44.422;26.092;2023-04-24T01:48:31;14.40;98.80
10447;DHT22;5271;44.422;26.092;2023-04-24T01:50:59;14.50;98.70
10447;DHT22;5271;44.422;26.092;2023-04-24T01:53:26;14.40;98.70
10447;DHT22;5271;44.422;26.092;2023-04-24T01:55:52;14.40;98.80
10447;DHT22;5271;44.422;26.092;2023-04-24T01:58:21;14.40;98.90
10447;DHT22;5271;44.422;26.092;2023-04-24T02:00:48;14.40;98.80
10447;DHT22;5271;44.422;26.092;2023-04-24T02:03:14;14.40;98.90
10447;DHT22;5271;44.422;26.092;2023-04-24T02:05:43;14.40;98.90
10447;DHT22;5271;44.422;26.092;2023-04-24T02:08:10;14.40;98.90
10447;DHT22;5271;44.422;26.092;2023-04-24T02:10:37;14.30;98.90
10447;DHT22;5271;44.422;26.092;2023-04-24T02:13:04;14.30;99.00
10447;DHT22;5271;44.422;26.092;2023-04-24T02:15:32;14.30;99.00
10447;DHT22;5271;44.422;26.092;2023-04-24T02:17:59;14.30;99.00
10447;DHT22;5271;44.422;26.092;2023-04-24T02:20:26;14.30;99.10
10447;DHT22;5271;44.422;26.092;2023-04-24T02:22:53;14.20;99.10
10447;DHT22;5271;44.422;26.092;2023-04-24T02:25:20;14.30;99.20
10447;DHT22;5271;44.422;26.092;2023-04-24T02:27:47;14.20;99.30
10447;DHT22;5271;44.422;26.092;2023-04-24T02:30:14;14.20;99.40
10447;DHT22;5271;44.422;26.092;2023-04-24T02:32:42;14.20;99.40
10447;DHT22;5271;44.422;26.092;2023-04-24T02:35:10;14.20;99.50
10447;DHT22;5271;44.422;26.092;2023-04-24T02:37:36;14.20;99.60
10447;DHT22;5271;44.422;26.092;2023-04-24T02:40:04;14.20;99.60
10447;DHT22;5271;44.422;26.092;2023-04-24T02:42:31;14.30;99.60
10447;DHT22;5271;44.422;26.092;2023-04-24T02:44:58;14.20;99.70
10447;DHT22;5271;44.422;26.092;2023-04-24T02:47:25;14.20;99.80
10447;DHT22;5271;44.422;26.092;2023-04-24T02:49:53;14.20;99.90
10447;DHT22;5271;44.422;26.092;2023-04-24T02:52:20;14.20;99.90
10447;DHT22;5271;44.422;26.092;2023-04-24T02:54:47;14.20;99.90
10447;DHT22;5271;44.422;26.092;2023-04-24T02:57:14;14.30;99.90
10447;DHT22;5271;44.422;26.092;2023-04-24T02:59:41;14.30;99.90
10447;DHT22;5271;44.422;26.092;2023-04-24T03:02:08;14.20;99.90
10447;DHT22;5271;44.422;26.092;2023-04-24T03:04:35;14.20;99.90
10447;DHT22;5271;44.422;26.092;2023-04-24T03:07:03;14.30;99.90
10447;DHT22;5271;44.422;26.092;2023-04-24T03:09:30;14.30;99.90
10447;DHT22;5271;44.422;26.092;2023-04-24T03:11:57;14.30;99.90
10447;DHT22;5271;44.422;26.092;2023-04-24T03:14:24;14.30;99.90
10447;DHT22;5271;44.422;26.092;2023-04-24T03:16:51;14.40;99.90
10447;DHT22;5271;44.422;26.092;2023-04-24T03:19:17;14.40;99.90
10447;DHT22;5271;44.422;26.092;2023-04-24T03:21:44;14.40;99.90
10447;DHT22;5271;44.422;26.092;2023-04-24T03:24:13;14.40;99.90
10447;DHT22;5271;44.422;26.092;2023-04-24T03:26:39;14.40;99.90
10447;DHT22;5271;44.422;26.092;2023-04-24T03:29:06;14.40;99.90
10447;DHT22;5271;44.422;26.092;2023-04-24T03:31:33;14.40;99.90
10447;DHT22;5271;44.422;26.092;2023-04-24T03:34:00;14.40;99.90
10447;DHT22;5271;44.422;26.092;2023-04-24T03:36:27;14.40;99.90
10447;DHT22;5271;44.422;26.092;2023-04-24T03:38:54;14.40;99.90
10447;DHT22;5271;44.422;26.092;2023-04-24T03:41:22;14.50;99.90
10447;DHT22;5271;44.422;26.092;2023-04-24T03:43:49;14.50;99.90
10447;DHT22;5271;44.422;26.092;2023-04-24T03:46:16;14.40;99.90
10447;DHT22;5271;44.422;26.092;2023-04-24T03:48:43;14.30;99.90
10447;DHT22;5271;44.422;26.092;2023-04-24T03:51:09;14.30;99.90
10447;DHT22;5271;44.422;26.092;2023-04-24T03:53:36;14.30;99.60
10447;DHT22;5271;44.422;26.092;2023-04-24T03:56:03;14.30;99.80
10447;DHT22;5271;44.422;26.092;2023-04-24T03:58:31;14.30;99.90
10447;DHT22;5271;44.422;26.092;2023-04-24T04:00:58;14.30;99.80
10447;DHT22;5271;44.422;26.092;2023-04-24T04:03:25;14.40;99.70
10447;DHT22;5271;44.422;26.092;2023-04-24T04:05:52;14.40;99.40
10447;DHT22;5271;44.422;26.092;2023-04-24T04:08:19;14.40;99.50
10447;DHT22;5271;44.422;26.092;2023-04-24T04:10:46;14.30;99.70
10447;DHT22;5271;44.422;26.092;2023-04-24T04:13:13;14.30;99.90
10447;DHT22;5271;44.422;26.092;2023-04-24T04:15:41;14.20;99.90
10447;DHT22;5271;44.422;26.092;2023-04-24T04:18:08;14.20;99.90
10447;DHT22;5271;44.422;26.092;2023-04-24T04:20:35;14.20;99.90
10447;DHT22;5271;44.422;26.092;2023-04-24T04:23:02;14.20;99.90
10447;DHT22;5271;44.422;26.092;2023-04-24T04:25:28;14.10;99.90
10447;DHT22;5271;44.422;26.092;2023-04-24T04:27:55;14.10;99.90
10447;DHT22;5271;44.422;26.092;2023-04-24T04:30:23;14.20;99.90
10447;DHT22;5271;44.422;26.092;2023-04-24T04:32:52;14.20;99.90
10447;DHT22;5271;44.422;26.092;2023-04-24T04:35:19;14.10;99.90
10447;DHT22;5271;44.422;26.092;2023-04-24T04:37:46;14.20;99.90
10447;DHT22;5271;44.422;26.092;2023-04-24T04:40:13;14.10;99.90
10447;DHT22;5271;44.422;26.092;2023-04-24T04:42:39;14.00;99.90
10447;DHT22;5271;44.422;26.092;2023-04-24T04:45:07;14.00;99.90
10447;DHT22;5271;44.422;26.092;2023-04-24T04:47:37;14.00;99.90
10447;DHT22;5271;44.422;26.092;2023-04-24T04:50:07;14.00;99.90
10447;DHT22;5271;44.422;26.092;2023-04-24T04:52:34;14.00;99.90
10447;DHT22;5271;44.422;26.092;2023-04-24T04:55:01;14.10;99.90
10447;DHT22;5271;44.422;26.092;2023-04-24T04:57:27;14.10;99.90
10447;DHT22;5271;44.422;26.092;2023-04-24T04:59:55;14.20;99.90
10447;DHT22;5271;44.422;26.092;2023-04-24T05:02:22;14.20;99.90
10447;DHT22;5271;44.422;26.092;2023-04-24T05:04:49;14.10;99.90
10447;DHT22;5271;44.422;26.092;2023-04-24T05:07:17;14.10;99.90
10447;DHT22;5271;44.422;26.092;2023-04-24T05:09:44;14.10;99.90
10447;DHT22;5271;44.422;26.092;2023-04-24T05:12:11;14.10;99.90
10447;DHT22;5271;44.422;26.092;2023-04-24T05:14:38;14.10;99.90
10447;DHT22;5271;44.422;26.092;2023-04-24T05:17:06;14.10;99.90
10447;DHT22;5271;44.422;26.092;2023-04-24T05:19:32;14.10;99.90
10447;DHT22;5271;44.422;26.092;2023-04-24T05:22:01;14.10;99.90
10447;DHT22;5271;44.422;26.092;2023-04-24T05:24:31;14.10;99.90
10447;DHT22;5271;44.422;26.092;2023-04-24T05:26:57;14.10;99.90
10447;DHT22;5271;44.422;26.092;2023-04-24T05:29:25;14.10;99.90
10447;DHT22;5271;44.422;26.092;2023-04-24T05:31:52;14.10;99.90
10447;DHT22;5271;44.422;26.092;2023-04-24T05:34:19;14.20;99.90
10447;DHT22;5271;44.422;26.092;2023-04-24T05:36:46;14.20;99.90
10447;DHT22;5271;44.422;26.092;2023-04-24T05:39:13;14.10;99.90
10447;DHT22;5271;44.422;26.092;2023-04-24T05:41:42;14.20;99.90
10447;DHT22;5271;44.422;26.092;2023-04-24T05:44:09;14.20;99.90
10447;DHT22;5271;44.422;26.092;2023-04-24T05:46:36;14.20;99.90
10447;DHT22;5271;44.422;26.092;2023-04-24T05:49:02;14.20;99.90
10447;DHT22;5271;44.422;26.092;2023-04-24T05:51:29;14.20;99.90
10447;DHT22;5271;44.422;26.092;2023-04-24T05:53:57;14.20;99.90
10447;DHT22;5271;44.422;26.092;2023-04-24T05:56:24;14.20;99.90
10447;DHT22;5271;44.422;26.092;2023-04-24T05:58:52;14.30;99.70
10447;DHT22;5271;44.422;26.092;2023-04-24T06:01:19;14.20;99.50
10447;DHT22;5271;44.422;26.092;2023-04-24T06:03:46;14.20;99.50
10447;DHT22;5271;44.422;26.092;2023-04-24T06:06:13;14.20;99.50
10447;DHT22;5271;44.422;26.092;2023-04-24T06:08:41;14.20;99.30
10447;DHT22;5271;44.422;26.092;2023-04-24T06:11:09;14.30;99.00
10447;DHT22;5271;44.422;26.092;2023-04-24T06:13:36;14.30;98.50
10447;DHT22;5271;44.422;26.092;2023-04-24T06:16:04;14.30;98.70
10447;DHT22;5271;44.422;26.092;2023-04-24T06:18:31;14.30;98.40
10447;DHT22;5271;44.422;26.092;2023-04-24T06:20:58;14.30;97.80
10447;DHT22;5271;44.422;26.092;2023-04-24T06:23:25;14.30;97.90
10447;DHT22;5271;44.422;26.092;2023-04-24T06:25:52;14.30;97.20
10447;DHT22;5271;44.422;26.092;2023-04-24T06:28:19;14.30;97.30
10447;DHT22;5271;44.422;26.092;2023-04-24T06:30:46;14.30;96.80
10447;DHT22;5271;44.422;26.092;2023-04-24T06:33:15;14.30;96.40
10447;DHT22;5271;44.422;26.092;2023-04-24T06:35:42;14.30;96.40
10447;DHT22;5271;44.422;26.092;2023-04-24T06:38:09;14.30;95.90
10447;DHT22;5271;44.422;26.092;2023-04-24T06:40:36;14.30;95.50
10447;DHT22;5271;44.422;26.092;2023-04-24T06:43:03;14.30;94.70
10447;DHT22;5271;44.422;26.092;2023-04-24T06:45:31;14.30;94.20
10447;DHT22;5271;44.422;26.092;2023-04-24T06:47:58;14.20;94.40
10447;DHT22;5271;44.422;26.092;2023-04-24T06:50:26;14.30;94.00
10447;DHT22;5271;44.422;26.092;2023-04-24T06:52:53;14.20;93.50
10447;DHT22;5271;44.422;26.092;2023-04-24T06:55:20;14.30;93.30
10447;DHT22;5271;44.422;26.092;2023-04-24T06:57:47;14.20;92.20
10447;DHT22;5271;44.422;26.092;2023-04-24T07:00:14;14.30;92.10
10447;DHT22;5271;44.422;26.092;2023-04-24T07:02:41;14.20;92.00
10447;DHT22;5271;44.422;26.092;2023-04-24T07:05:08;14.20;92.20
10447;DHT22;5271;44.422;26.092;2023-04-24T07:07:36;14.30;92.40
10447;DHT22;5271;44.422;26.092;2023-04-24T07:10:06;14.30;92.20
10447;DHT22;5271;44.422;26.092;2023-04-24T07:12:34;14.40;91.70
10447;DHT22;5271;44.422;26.092;2023-04-24T07:15:01;14.50;91.60
10447;DHT22;5271;44.422;26.092;2023-04-24T07:17:28;14.60;91.40
10447;DHT22;5271;44.422;26.092;2023-04-24T07:19:55;14.80;90.90
10447;DHT22;5271;44.422;26.092;2023-04-24T07:22:22;14.90;90.70
10447;DHT22;5271;44.422;26.092;2023-04-24T07:24:50;15.00;90.20
10447;DHT22;5271;44.422;26.092;2023-04-24T07:27:17;15.10;89.70
10447;DHT22;5271;44.422;26.092;2023-04-24T07:29:44;15.10;89.20
10447;DHT22;5271;44.422;26.092;2023-04-24T07:32:11;15.20;88.70
10447;DHT22;5271;44.422;26.092;2023-04-24T07:34:38;15.30;89.30
10447;DHT22;5271;44.422;26.092;2023-04-24T07:37:05;15.40;88.60
10447;DHT22;5271;44.422;26.092;2023-04-24T07:39:32;15.70;89.50
10447;DHT22;5271;44.422;26.092;2023-04-24T07:42:00;16.30;88.90
10447;DHT22;5271;44.422;26.092;2023-04-24T07:44:28;17.40;86.60
10447;DHT22;5271;44.422;26.092;2023-04-24T07:46:55;18.40;86.40
10447;DHT22;5271;44.422;26.092;2023-04-24T07:49:22;19.50;84.70
10447;DHT22;5271;44.422;26.092;2023-04-24T07:51:49;20.80;78.60
10447;DHT22;5271;44.422;26.092;2023-04-24T07:54:16;21.90;76.40
10447;DHT22;5271;44.422;26.092;2023-04-24T07:56:43;22.70;70.60
10447;DHT22;5271;44.422;26.092;2023-04-24T07:59:12;22.20;69.80
10447;DHT22;5271;44.422;26.092;2023-04-24T08:01:39;21.40;70.90
10447;DHT22;5271;44.422;26.092;2023-04-24T08:04:05;21.00;70.40
10447;DHT22;5271;44.422;26.092;2023-04-24T08:06:32;20.20;71.50
10447;DHT22;5271;44.422;26.092;2023-04-24T08:09:00;19.50;73.00
10447;DHT22;5271;44.422;26.092;2023-04-24T08:11:27;19.00;74.30
10447;DHT22;5271;44.422;26.092;2023-04-24T08:13:54;18.70;74.80
10447;DHT22;5271;44.422;26.092;2023-04-24T08:16:22;18.30;75.60
10447;DHT22;5271;44.422;26.092;2023-04-24T08:18:50;18.00;76.00
10447;DHT22;5271;44.422;26.092;2023-04-24T08:21:16;17.80;75.90
10447;DHT22;5271;44.422;26.092;2023-04-24T08:23:44;17.70;76.60
10447;DHT22;5271;44.422;26.092;2023-04-24T08:26:11;17.60;77.30
10447;DHT22;5271;44.422;26.092;2023-04-24T08:28:38;17.60;76.90
10447;DHT22;5271;44.422;26.092;2023-04-24T08:31:05;17.60;76.90
10447;DHT22;5271;44.422;26.092;2023-04-24T08:33:33;17.60;76.20
10447;DHT22;5271;44.422;26.092;2023-04-24T08:36:01;17.60;77.00
10447;DHT22;5271;44.422;26.092;2023-04-24T08:38:28;17.70;76.90
10447;DHT22;5271;44.422;26.092;2023-04-24T08:40:57;17.80;75.70
10447;DHT22;5271;44.422;26.092;2023-04-24T08:43:25;17.80;75.50
10447;DHT22;5271;44.422;26.092;2023-04-24T08:45:52;17.80;76.00
10447;DHT22;5271;44.422;26.092;2023-04-24T08:48:20;17.80;74.70
10447;DHT22;5271;44.422;26.092;2023-04-24T08:50:50;17.70;74.70
10447;DHT22;5271;44.422;26.092;2023-04-24T08:53:18;17.60;74.80
10447;DHT22;5271;44.422;26.092;2023-04-24T08:55:47;17.50;74.30
10447;DHT22;5271;44.422;26.092;2023-04-24T08:58:16;17.60;75.10
10447;DHT22;5271;44.422;26.092;2023-04-24T09:00:44;17.70;74.70
10447;DHT22;5271;44.422;26.092;2023-04-24T09:03:13;17.80;75.00
10447;DHT22;5271;44.422;26.092;2023-04-24T09:05:41;17.90;74.70
10447;DHT22;5271;44.422;26.092;2023-04-24T09:08:13;18.00;74.40
10447;DHT22;5271;44.422;26.092;2023-04-24T09:10:40;18.10;74.10
10447;DHT22;5271;44.422;26.092;2023-04-24T09:13:07;18.30;74.00
10447;DHT22;5271;44.422;26.092;2023-04-24T09:15:36;18.40;74.00
10447;DHT22;5271;44.422;26.092;2023-04-24T09:18:02;18.50;74.30
10447;DHT22;5271;44.422;26.092;2023-04-24T09:20:29;18.70;74.40
10447;DHT22;5271;44.422;26.092;2023-04-24T09:22:57;18.70;73.60
10447;DHT22;5271;44.422;26.092;2023-04-24T09:25:31;18.80;74.30
10447;DHT22;5271;44.422;26.092;2023-04-24T09:28:00;18.80;73.40
10447;DHT22;5271;44.422;26.092;2023-04-24T09:30:28;18.80;73.30
10447;DHT22;5271;44.422;26.092;2023-04-24T09:33:10;18.80;73.40
10447;DHT22;5271;44.422;26.092;2023-04-24T09:35:40;18.70;72.80
10447;DHT22;5271;44.422;26.092;2023-04-24T09:38:07;18.70;72.60
10447;DHT22;5271;44.422;26.092;2023-04-24T09:40:35;18.70;73.20
10447;DHT22;5271;44.422;26.092;2023-04-24T09:43:02;18.80;73.20
10447;DHT22;5271;44.422;26.092;2023-04-24T09:45:35;19.00;72.50
10447;DHT22;5271;44.422;26.092;2023-04-24T09:48:02;19.00;71.20
10447;DHT22;5271;44.422;26.092;2023-04-24T09:50:30;19.00;71.20
10447;DHT22;5271;44.422;26.092;2023-04-24T09:53:02;18.90;71.40
10447;DHT22;5271;44.422;26.092;2023-04-24T09:55:29;18.90;71.10
10447;DHT22;5271;44.422;26.092;2023-04-24T09:57:58;19.00;70.70
10447;DHT22;5271;44.422;26.092;2023-04-24T10:00:26;19.10;70.60
10447;DHT22;5271;44.422;26.092;2023-04-24T10:02:57;19.20;70.00
10447;DHT22;5271;44.422;26.092;2023-04-24T10:05:28;19.20;70.60
10447;DHT22;5271;44.422;26.092;2023-04-24T10:08:01;19.20;70.40
10447;DHT22;5271;44.422;26.092;2023-04-24T10:10:28;19.20;69.90
10447;DHT22;5271;44.422;26.092;2023-04-24T10:12:56;19.20;70.40
10447;DHT22;5271;44.422;26.092;2023-04-24T10:15:26;19.10;71.20
10447;DHT22;5271;44.422;26.092;2023-04-24T10:17:53;19.00;70.80
10447;DHT22;5271;44.422;26.092;2023-04-24T10:20:22;19.00;70.30
10447;DHT22;5271;44.422;26.092;2023-04-24T10:22:50;19.00;69.90
10447;DHT22;5271;44.422;26.092;2023-04-24T10:25:18;19.00;69.50
10447;DHT22;5271;44.422;26.092;2023-04-24T10:27:46;19.00;69.70
10447;DHT22;5271;44.422;26.092;2023-04-24T10:30:15;19.00;69.80
10447;DHT22;5271;44.422;26.092;2023-04-24T10:32:43;19.00;69.30
10447;DHT22;5271;44.422;26.092;2023-04-24T10:35:12;19.00;69.80
10447;DHT22;5271;44.422;26.092;2023-04-24T10:37:42;19.20;69.90
10447;DHT22;5271;44.422;26.092;2023-04-24T10:40:10;19.30;68.90
10447;DHT22;5271;44.422;26.092;2023-04-24T10:42:40;19.50;68.30
10447;DHT22;5271;44.422;26.092;2023-04-24T10:45:07;19.60;68.50
10447;DHT22;5271;44.422;26.092;2023-04-24T10:47:51;19.70;68.70
10447;DHT22;5271;44.422;26.092;2023-04-24T10:50:18;19.70;66.70
10447;DHT22;5271;44.422;26.092;2023-04-24T10:52:45;19.70;67.30
10447;DHT22;5271;44.422;26.092;2023-04-24T10:55:13;19.70;68.00
10447;DHT22;5271;44.422;26.092;2023-04-24T10:58:00;19.70;67.40
10447;DHT22;5271;44.422;26.092;2023-04-24T11:00:27;19.70;67.00
10447;DHT22;5271;44.422;26.092;2023-04-24T11:02:57;19.60;67.20
10447;DHT22;5271;44.422;26.092;2023-04-24T11:05:50;19.50;67.00
10447;DHT22;5271;44.422;26.092;2023-04-24T11:08:23;19.60;66.50
10447;DHT22;5271;44.422;26.092;2023-04-24T11:10:55;19.60;68.10
10447;DHT22;5271;44.422;26.092;2023-04-24T11:13:23;19.70;67.30
10447;DHT22;5271;44.422;26.092;2023-04-24T11:16:12;19.60;67.10
10447;DHT22;5271;44.422;26.092;2023-04-24T11:18:42;19.60;66.90
10447;DHT22;5271;44.422;26.092;2023-04-24T11:21:12;19.60;66.50
10447;DHT22;5271;44.422;26.092;2023-04-24T11:23:39;19.60;66.60
10447;DHT22;5271;44.422;26.092;2023-04-24T11:26:14;19.60;67.10
10447;DHT22;5271;44.422;26.092;2023-04-24T11:28:47;19.60;67.20
10447;DHT22;5271;44.422;26.092;2023-04-24T11:31:36;19.60;66.20
10447;DHT22;5271;44.422;26.092;2023-04-24T11:34:12;19.60;66.30
10447;DHT22;5271;44.422;26.092;2023-04-24T11:36:40;19.60;65.40
10447;DHT22;5271;44.422;26.092;2023-04-24T11:39:06;19.50;64.70
10447;DHT22;5271;44.422;26.092;2023-04-24T11:41:34;19.50;65.00
10447;DHT22;5271;44.422;26.092;2023-04-24T11:44:01;19.40;65.00
10447;DHT22;5271;44.422;26.092;2023-04-24T11:46:29;19.30;65.00
10447;DHT22;5271;44.422;26.092;2023-04-24T11:48:58;19.30;65.70
10447;DHT22;5271;44.422;26.092;2023-04-24T11:51:27;19.50;65.30
10447;DHT22;5271;44.422;26.092;2023-04-24T11:53:55;19.60;65.80
10447;DHT22;5271;44.422;26.092;2023-04-24T11:56:22;19.70;65.40
10447;DHT22;5271;44.422;26.092;2023-04-24T11:58:50;19.70;65.40
10447;DHT22;5271;44.422;26.092;2023-04-24T12:01:18;19.60;63.10
10447;DHT22;5271;44.422;26.092;2023-04-24T12:03:48;19.50;65.10
10447;DHT22;5271;44.422;26.092;2023-04-24T12:06:17;19.50;65.20
10447;DHT22;5271;44.422;26.092;2023-04-24T12:08:47;19.50;64.80
10447;DHT22;5271;44.422;26.092;2023-04-24T12:11:16;19.50;65.60
10447;DHT22;5271;44.422;26.092;2023-04-24T12:13:44;19.50;65.30
10447;DHT22;5271;44.422;26.092;2023-04-24T12:16:11;19.50;65.20
10447;DHT22;5271;44.422;26.092;2023-04-24T12:18:43;19.50;64.90
10447;DHT22;5271;44.422;26.092;2023-04-24T12:21:18;19.40;64.90
10447;DHT22;5271;44.422;26.092;2023-04-24T12:23:46;19.30;64.10
10447;DHT22;5271;44.422;26.092;2023-04-24T12:26:16;19.30;64.40
10447;DHT22;5271;44.422;26.092;2023-04-24T12:28:47;19.20;64.40
10447;DHT22;5271;44.422;26.092;2023-04-24T12:31:14;19.10;64.80
10447;DHT22;5271;44.422;26.092;2023-04-24T12:33:41;19.20;65.20
10447;DHT22;5271;44.422;26.092;2023-04-24T12:36:10;19.10;65.30
10447;DHT22;5271;44.422;26.092;2023-04-24T12:38:39;19.20;65.10
10447;DHT22;5271;44.422;26.092;2023-04-24T12:41:09;19.30;65.20
10447;DHT22;5271;44.422;26.092;2023-04-24T12:43:36;19.30;64.50
10447;DHT22;5271;44.422;26.092;2023-04-24T12:46:04;19.30;64.80
10447;DHT22;5271;44.422;26.092;2023-04-24T12:48:31;19.30;65.30
10447;DHT22;5271;44.422;26.092;2023-04-24T12:50:58;19.30;64.90
10447;DHT22;5271;44.422;26.092;2023-04-24T12:53:27;19.40;64.50
10447;DHT22;5271;44.422;26.092;2023-04-24T12:55:56;19.40;64.20
10447;DHT22;5271;44.422;26.092;2023-04-24T12:58:24;19.40;64.20
10447;DHT22;5271;44.422;26.092;2023-04-24T13:00:51;19.40;64.70
10447;DHT22;5271;44.422;26.092;2023-04-24T13:03:18;19.40;65.00
10447;DHT22;5271;44.422;26.092;2023-04-24T13:05:46;19.30;65.60
10447;DHT22;5271;44.422;26.092;2023-04-24T13:08:16;19.30;65.50
10447;DHT22;5271;44.422;26.092;2023-04-24T13:10:43;19.30;65.00
10447;DHT22;5271;44.422;26.092;2023-04-24T13:13:10;19.30;65.70
10447;DHT22;5271;44.422;26.092;2023-04-24T13:15:38;19.40;65.70
10447;DHT22;5271;44.422;26.092;2023-04-24T13:18:05;19.40;65.40
10447;DHT22;5271;44.422;26.092;2023-04-24T13:20:32;19.40;65.60
10447;DHT22;5271;44.422;26.092;2023-04-24T13:23:00;19.40;65.30
10447;DHT22;5271;44.422;26.092;2023-04-24T13:25:27;19.50;65.30
10447;DHT22;5271;44.422;26.092;2023-04-24T13:27:55;19.50;65.40
10447;DHT22;5271;44.422;26.092;2023-04-24T13:30:22;19.50;64.90
10447;DHT22;5271;44.422;26.092;2023-04-24T13:32:50;19.60;65.30
10447;DHT22;5271;44.422;26.092;2023-04-24T13:35:17;19.60;64.80
10447;DHT22;5271;44.422;26.092;2023-04-24T13:37:43;19.60;64.60
10447;DHT22;5271;44.422;26.092;2023-04-24T13:40:11;19.60;65.00
10447;DHT22;5271;44.422;26.092;2023-04-24T13:42:38;19.50;65.40
10447;DHT22;5271;44.422;26.092;2023-04-24T13:45:05;19.50;65.50
10447;DHT22;5271;44.422;26.092;2023-04-24T13:47:32;19.40;65.40
10447;DHT22;5271;44.422;26.092;2023-04-24T13:50:00;19.50;65.60
10447;DHT22;5271;44.422;26.092;2023-04-24T13:52:27;19.40;65.30
10447;DHT22;5271;44.422;26.092;2023-04-24T13:54:54;19.40;65.30
10447;DHT22;5271;44.422;26.092;2023-04-24T13:57:21;19.40;65.40
10447;DHT22;5271;44.422;26.092;2023-04-24T13:59:48;19.40;65.60
10447;DHT22;5271;44.422;26.092;2023-04-24T14:02:15;19.40;65.60
10447;DHT22;5271;44.422;26.092;2023-04-24T14:04:41;19.40;65.50
10447;DHT22;5271;44.422;26.092;2023-04-24T14:07:10;19.40;65.60
10447;DHT22;5271;44.422;26.092;2023-04-24T14:09:36;19.30;65.30
10447;DHT22;5271;44.422;26.092;2023-04-24T14:12:03;19.30;65.50
10447;DHT22;5271;44.422;26.092;2023-04-24T14:14:31;19.30;65.30
10447;DHT22;5271;44.422;26.092;2023-04-24T14:16:58;19.30;65.70
10447;DHT22;5271;44.422;26.092;2023-04-24T14:19:25;19.30;65.60
10447;DHT22;5271;44.422;26.092;2023-04-24T14:21:52;19.30;65.40
10447;DHT22;5271;44.422;26.092;2023-04-24T14:24:20;19.30;65.30
10447;DHT22;5271;44.422;26.092;2023-04-24T14:26:47;19.20;65.60
10447;DHT22;5271;44.422;26.092;2023-04-24T14:29:14;19.20;65.90
10447;DHT22;5271;44.422;26.092;2023-04-24T14:31:42;19.20;65.50
10447;DHT22;5271;44.422;26.092;2023-04-24T14:34:09;19.20;65.50
10447;DHT22;5271;44.422;26.092;2023-04-24T14:36:36;19.20;65.90
10447;DHT22;5271;44.422;26.092;2023-04-24T14:39:03;19.20;66.00
10447;DHT22;5271;44.422;26.092;2023-04-24T14:41:33;19.20;65.50
10447;DHT22;5271;44.422;26.092;2023-04-24T14:44:01;19.20;65.70
10447;DHT22;5271;44.422;26.092;2023-04-24T14:46:28;19.20;65.60
10447;DHT22;5271;44.422;26.092;2023-04-24T14:48:55;19.10;65.50
10447;DHT22;5271;44.422;26.092;2023-04-24T14:51:23;19.20;65.70
10447;DHT22;5271;44.422;26.092;2023-04-24T14:53:50;19.20;65.90
10447;DHT22;5271;44.422;26.092;2023-04-24T14:56:17;19.20;66.00
10447;DHT22;5271;44.422;26.092;2023-04-24T14:58:45;19.20;65.90
10447;DHT22;5271;44.422;26.092;2023-04-24T15:01:12;19.10;65.60
10447;DHT22;5271;44.422;26.092;2023-04-24T15:03:39;19.10;65.30
10447;DHT22;5271;44.422;26.092;2023-04-24T15:06:06;19.10;65.50
10447;DHT22;5271;44.422;26.092;2023-04-24T15:08:33;19.00;65.40
10447;DHT22;5271;44.422;26.092;2023-04-24T15:11:00;19.00;64.90
10447;DHT22;5271;44.422;26.092;2023-04-24T15:13:26;19.00;64.90
10447;DHT22;5271;44.422;26.092;2023-04-24T15:15:55;19.00;65.10
10447;DHT22;5271;44.422;26.092;2023-04-24T15:18:22;19.00;65.10
10447;DHT22;5271;44.422;26.092;2023-04-24T15:20:48;19.00;64.90
10447;DHT22;5271;44.422;26.092;2023-04-24T15:23:15;19.10;65.00
10447;DHT22;5271;44.422;26.092;2023-04-24T15:25:42;19.00;64.70
10447;DHT22;5271;44.422;26.092;2023-04-24T15:28:09;19.00;63.90
10447;DHT22;5271;44.422;26.092;2023-04-24T15:30:36;18.90;64.40
10447;DHT22;5271;44.422;26.092;2023-04-24T15:33:04;18.90;64.70